Time;durP1;ratioP1;P1;durP2;ratioP2;P2;SDS_P1;SDS_P2;PMS_P1;PMS_P2;Temp;Humidity;BMP_temperature;BMP_pressure;BME280_temperature;BME280_humidity;BME280_pressure;Samples;Min_cycle;Max_cycle;Signal;HPM_P1;HPM_P2
2022/12/03 00:00:23;;;;;;;26.17;15.23;;;18.80;42.30;;;;;;5046523;28;20047;-55
2022/12/03 00:02:50;;;;;;;25.58;15.38;;;18.80;42.40;;;;;;5049002;28;20052;-57
2022/12/03 00:05:17;;;;;;;24.67;15.32;;;18.80;42.40;;;;;;5050232;28;20519;-53
2022/12/03 00:07:44;;;;;;;20.33;13.35;;;18.80;42.40;;;;;;5050649;28;20041;-53
2022/12/03 00:10:12;;;;;;;21.23;13.98;;;18.80;42.40;;;;;;5054070;28;20071;-54
2022/12/03 00:12:39;;;;;;;23.83;14.13;;;18.80;42.50;;;;;;5051022;28;20486;-53
2022/12/03 00:15:08;;;;;;;25.40;15.20;;;18.80;42.40;;;;;;5051276;28;20142;-55
2022/12/03 00:17:36;;;;;;;23.00;13.63;;;18.80;42.40;;;;;;5051762;28;20060;-55
2022/12/03 00:20:04;;;;;;;22.92;13.82;;;18.70;42.30;;;;;;5051229;28;20047;-58
2022/12/03 00:22:31;;;;;;;24.75;13.40;;;18.70;42.40;;;;;;5051667;28;20091;-57
2022/12/03 00:24:58;;;;;;;23.75;14.85;;;18.70;42.40;;;;;;5051807;28;20045;-55
2022/12/03 00:27:26;;;;;;;20.20;13.55;;;18.70;42.40;;;;;;5051826;28;20045;-57
2022/12/03 00:29:53;;;;;;;20.08;11.98;;;18.70;42.50;;;;;;5050833;28;20045;-54
2022/12/03 00:32:21;;;;;;;20.15;12.68;;;18.70;42.40;;;;;;5050562;28;20053;-61
2022/12/03 00:34:49;;;;;;;19.20;12.05;;;18.70;42.40;;;;;;5050179;28;20501;-56
2022/12/03 00:37:16;;;;;;;19.20;12.23;;;18.70;42.40;;;;;;5050323;28;20106;-56
2022/12/03 00:39:43;;;;;;;16.63;11.43;;;18.70;42.50;;;;;;5050355;28;20438;-55
2022/12/03 00:42:10;;;;;;;16.17;11.30;;;18.60;42.40;;;;;;5050480;28;20079;-54
2022/12/03 00:44:37;;;;;;;19.85;11.65;;;18.70;42.50;;;;;;5050432;28;20037;-56
2022/12/03 00:47:05;;;;;;;24.83;12.52;;;18.60;42.30;;;;;;5048787;28;20056;-56
2022/12/03 00:49:32;;;;;;;16.42;9.35;;;18.60;42.40;;;;;;5049688;28;20754;-56
2022/12/03 00:52:00;;;;;;;15.20;10.32;;;18.60;42.40;;;;;;5050130;28;20072;-56
2022/12/03 00:54:27;;;;;;;16.50;11.38;;;18.60;42.40;;;;;;5050086;28;20047;-56
2022/12/03 00:56:54;;;;;;;18.40;10.43;;;18.60;42.40;;;;;;5050022;28;20106;-56
2022/12/03 00:59:21;;;;;;;12.52;8.85;;;18.60;42.40;;;;;;5050004;28;20064;-53
2022/12/03 01:01:48;;;;;;;17.98;10.65;;;18.60;42.40;;;;;;5049597;28;20099;-53
2022/12/03 01:04:15;;;;;;;16.63;9.65;;;18.50;42.30;;;;;;5050217;28;20039;-55
2022/12/03 01:06:42;;;;;;;13.35;9.13;;;18.60;42.40;;;;;;5050603;28;20049;-56
2022/12/03 01:09:10;;;;;;;11.88;8.75;;;18.50;42.30;;;;;;5050246;28;20037;-55
2022/12/03 01:11:38;;;;;;;13.77;9.45;;;18.50;42.40;;;;;;5048704;28;20076;-57
2022/12/03 01:14:05;;;;;;;16.45;9.30;;;18.50;42.40;;;;;;5046022;28;20140;-57
2022/12/03 01:16:33;;;;;;;13.75;8.57;;;18.50;42.50;;;;;;5049627;28;20564;-54
2022/12/03 01:19:00;;;;;;;12.60;8.50;;;18.50;42.40;;;;;;5049388;28;20447;-56
2022/12/03 01:21:27;;;;;;;11.18;7.80;;;18.50;42.40;;;;;;5049680;28;20132;-56
2022/12/03 01:23:54;;;;;;;12.80;9.57;;;18.50;42.40;;;;;;5049782;28;20045;-54
2022/12/03 01:26:24;;;;;;;15.18;8.02;;;18.50;42.40;;;;;;5049604;28;20098;-56
2022/12/03 01:28:51;;;;;;;10.70;7.60;;;18.50;42.40;;;;;;5049348;28;20040;-55
2022/12/03 01:34:03;;;;;;;12.93;7.43;;;18.50;42.40;;;;;;5049356;28;20045;-55
2022/12/03 01:36:30;;;;;;;13.40;7.20;;;18.50;42.50;;;;;;5049825;28;20120;-54
2022/12/03 01:38:57;;;;;;;12.93;8.43;;;18.50;42.50;;;;;;5049481;28;20068;-55
2022/12/03 01:41:26;;;;;;;12.23;7.32;;;18.50;42.50;;;;;;5049283;28;20060;-55
2022/12/03 01:43:54;;;;;;;13.90;8.27;;;18.50;42.40;;;;;;5049364;28;20048;-57
2022/12/03 01:46:23;;;;;;;10.55;6.85;;;18.40;42.40;;;;;;5049173;28;20115;-54
2022/12/03 01:48:53;;;;;;;9.70;7.30;;;18.40;42.40;;;;;;5049109;28;20075;-56
2022/12/03 01:51:21;;;;;;;11.73;7.13;;;18.40;42.50;;;;;;5049047;28;20040;-55
2022/12/03 01:53:49;;;;;;;10.07;6.35;;;18.40;42.40;;;;;;5047947;28;20033;-55
2022/12/03 01:56:17;;;;;;;9.32;5.95;;;18.40;42.50;;;;;;5049019;28;20110;-54
2022/12/03 01:58:47;;;;;;;10.50;6.05;;;18.40;42.40;;;;;;5049097;28;20047;-55
2022/12/03 02:01:16;;;;;;;10.65;6.50;;;18.40;42.40;;;;;;5048316;28;20074;-56
2022/12/03 02:03:44;;;;;;;7.57;5.75;;;18.40;42.50;;;;;;5045538;28;20122;-59
2022/12/03 02:06:16;;;;;;;20.38;5.30;;;18.30;42.40;;;;;;5046174;28;20048;-57
2022/12/03 02:08:44;;;;;;;8.57;5.47;;;18.40;42.80;;;;;;5045747;28;20040;-57
2022/12/03 02:11:19;;;;;;;7.75;5.88;;;18.30;42.90;;;;;;5048794;28;20124;-57
2022/12/03 02:13:49;;;;;;;18.48;4.47;;;18.40;43.30;;;;;;5047425;28;20506;-59
2022/12/03 02:16:16;;;;;;;9.95;5.85;;;18.40;43.40;;;;;;5047275;28;20844;-58
2022/12/03 02:18:44;;;;;;;8.63;5.40;;;18.50;43.60;;;;;;5047162;28;20049;-58
2022/12/03 02:21:18;;;;;;;6.82;4.75;;;18.50;43.50;;;;;;5046043;28;20103;-58
2022/12/03 02:23:56;;;;;;;8.75;6.20;;;18.60;43.70;;;;;;5046645;28;20110;-57
2022/12/03 02:26:24;;;;;;;8.57;5.35;;;18.70;43.60;;;;;;5046608;28;20429;-58
2022/12/03 02:28:52;;;;;;;9.32;4.65;;;18.80;43.60;;;;;;5046857;28;20037;-57
2022/12/03 02:31:19;;;;;;;6.10;5.13;;;18.90;43.60;;;;;;5047267;28;20083;-57
2022/12/03 02:33:46;;;;;;;8.23;5.53;;;19.00;43.50;;;;;;5046830;28;20057;-57
2022/12/03 02:36:13;;;;;;;11.43;6.18;;;19.00;43.40;;;;;;5047078;28;20041;-58
2022/12/03 02:38:42;;;;;;;9.60;5.30;;;19.10;43.30;;;;;;5047351;28;20052;-58
2022/12/03 02:42:33;;;;;;;7.07;4.78;;;19.20;43.40;;;;;;5046825;28;20090;-58
2022/12/03 02:44:02;;;;;;;7.90;5.25;;;19.20;43.20;;;;;;5047520;28;20060;-58
2022/12/03 02:46:29;;;;;;;10.02;5.45;;;19.20;43.20;;;;;;5046934;28;20044;-58
2022/12/03 02:48:57;;;;;;;9.43;5.38;;;19.20;43.20;;;;;;5048299;28;20037;-58
2022/12/03 02:51:25;;;;;;;6.60;5.15;;;19.20;43.40;;;;;;5047411;28;20064;-58
2022/12/03 02:53:54;;;;;;;10.68;5.28;;;19.10;43.50;;;;;;5047529;28;20048;-58
2022/12/03 02:56:26;;;;;;;6.90;4.32;;;19.10;43.60;;;;;;5047117;28;20033;-55
2022/12/03 02:58:57;;;;;;;7.95;5.57;;;19.10;43.90;;;;;;5046736;28;20056;-57
2022/12/03 03:01:26;;;;;;;10.23;5.45;;;19.10;44.20;;;;;;5046747;28;20780;-57
2022/12/03 03:03:54;;;;;;;6.53;5.47;;;19.00;44.50;;;;;;5045987;28;20045;-55
2022/12/03 03:06:23;;;;;;;9.20;5.28;;;19.00;44.80;;;;;;5045033;28;20049;-56
2022/12/03 03:08:50;;;;;;;6.32;4.93;;;19.00;44.90;;;;;;5046853;28;20484;-55
2022/12/03 03:11:17;;;;;;;7.15;5.50;;;18.90;44.90;;;;;;5047273;28;20072;-55
2022/12/03 03:13:44;;;;;;;8.73;5.18;;;18.90;45.10;;;;;;5046753;28;20041;-56
2022/12/03 03:16:11;;;;;;;8.15;5.53;;;18.80;45.40;;;;;;5047170;28;20049;-55
2022/12/03 03:18:40;;;;;;;7.35;5.32;;;18.80;45.60;;;;;;5047108;28;20493;-57
2022/12/03 03:21:07;;;;;;;9.98;5.07;;;18.80;45.70;;;;;;5047453;28;20124;-57
2022/12/03 03:23:35;;;;;;;8.68;6.00;;;18.70;45.80;;;;;;5047456;28;20045;-57
2022/12/03 03:26:04;;;;;;;9.82;6.25;;;18.70;45.90;;;;;;5047442;28;20505;-57
2022/12/03 03:28:32;;;;;;;11.10;5.80;;;18.70;45.90;;;;;;5046656;28;20044;-56
2022/12/03 03:31:01;;;;;;;6.28;4.70;;;18.70;45.90;;;;;;5046693;28;20119;-57
2022/12/03 03:33:28;;;;;;;6.78;4.60;;;18.60;46.00;;;;;;5047086;28;20140;-56
2022/12/03 03:35:59;;;;;;;8.30;4.88;;;18.60;45.90;;;;;;5047078;28;20139;-56
2022/12/03 03:38:27;;;;;;;6.30;4.53;;;18.60;46.10;;;;;;5046360;28;20047;-56
2022/12/03 03:40:54;;;;;;;7.65;5.20;;;18.60;46.20;;;;;;5046491;28;20037;-55
2022/12/03 03:43:22;;;;;;;7.68;5.43;;;18.50;46.20;;;;;;5046953;28;20065;-56
2022/12/03 03:45:50;;;;;;;9.95;6.55;;;18.50;46.20;;;;;;5047214;28;20536;-57
2022/12/03 03:48:18;;;;;;;6.80;5.05;;;18.50;46.20;;;;;;5047110;28;20111;-56
2022/12/03 03:50:45;;;;;;;7.40;5.55;;;18.50;46.20;;;;;;5046685;28;20108;-57
2022/12/03 03:53:15;;;;;;;9.73;6.40;;;18.40;46.10;;;;;;5045545;28;20122;-58
2022/12/03 03:55:42;;;;;;;8.05;5.78;;;18.40;46.10;;;;;;5046648;28;20079;-57
2022/12/03 03:58:09;;;;;;;7.88;5.22;;;18.40;46.70;;;;;;5046924;28;20041;-57
2022/12/03 04:00:37;;;;;;;7.18;4.47;;;18.40;46.10;;;;;;5046773;28;20573;-54
2022/12/03 04:03:04;;;;;;;8.68;5.50;;;18.30;46.10;;;;;;5046640;28;20131;-57
2022/12/03 04:05:31;;;;;;;11.00;5.68;;;18.30;46.20;;;;;;5046500;28;20045;-56
2022/12/03 04:07:58;;;;;;;6.05;4.80;;;18.30;46.20;;;;;;5046865;28;20036;-53
2022/12/03 04:13:08;;;;;;;9.10;5.63;;;18.30;46.40;;;;;;5023640;28;20049;-56
2022/12/03 04:15:35;;;;;;;7.97;5.57;;;18.20;46.30;;;;;;5023937;28;20045;-56
2022/12/03 04:20:47;;;;;;;7.60;5.45;;;18.20;46.40;;;;;;5007318;28;20053;-58
2022/12/03 04:23:13;;;;;;;7.57;4.88;;;18.10;46.40;;;;;;5023997;28;20932;-58
2022/12/03 04:36:39;;;;;;;8.43;5.68;;;18.10;47.10;;;;;;5023742;28;20057;-55
2022/12/03 04:39:06;;;;;;;8.60;5.40;;;18.10;47.20;;;;;;5023300;28;20043;-56
2022/12/03 04:41:35;;;;;;;8.05;4.78;;;18.10;46.60;;;;;;5023867;28;20046;-57
2022/12/03 04:46:46;;;;;;;9.90;5.43;;;18.10;46.80;;;;;;5023745;28;20100;-53
2022/12/03 04:49:13;;;;;;;10.65;5.65;;;18.00;46.80;;;;;;5025960;28;20061;-56
2022/12/03 04:51:41;;;;;;;6.93;4.70;;;18.10;46.90;;;;;;5049874;28;20052;-58
2022/12/03 04:54:08;;;;;;;6.18;4.68;;;18.00;46.90;;;;;;5049614;28;20424;-55
2022/12/03 04:56:36;;;;;;;10.85;6.03;;;18.00;46.90;;;;;;5047462;28;20095;-57
2022/12/03 04:59:03;;;;;;;9.93;6.57;;;18.00;46.90;;;;;;5049816;28;20049;-57
2022/12/03 05:01:30;;;;;;;7.85;5.35;;;18.00;47.00;;;;;;5050247;28;20033;-58
2022/12/03 05:03:57;;;;;;;8.23;5.70;;;18.00;47.00;;;;;;5050019;28;20080;-58
2022/12/03 05:06:24;;;;;;;8.40;5.68;;;18.00;47.00;;;;;;5050094;28;20041;-58
2022/12/03 05:08:51;;;;;;;6.75;4.93;;;17.90;47.10;;;;;;5049710;28;20045;-58
2022/12/03 05:11:18;;;;;;;7.25;4.75;;;17.90;47.10;;;;;;5049971;28;20128;-56
2022/12/03 05:13:47;;;;;;;7.05;5.40;;;17.90;47.20;;;;;;5049682;28;20037;-56
2022/12/03 05:16:14;;;;;;;7.60;4.35;;;17.90;47.30;;;;;;5049613;28;20041;-56
2022/12/03 05:18:41;;;;;;;6.47;4.93;;;17.90;47.40;;;;;;5049096;28;20037;-57
2022/12/03 05:21:08;;;;;;;7.05;4.40;;;17.90;47.50;;;;;;5049285;28;20036;-57
2022/12/03 05:23:35;;;;;;;6.95;4.65;;;17.90;48.10;;;;;;5049278;28;20041;-57
2022/12/03 05:26:02;;;;;;;3.95;3.20;;;17.90;47.50;;;;;;5049543;28;20072;-57
2022/12/03 05:28:29;;;;;;;6.53;5.25;;;17.90;47.50;;;;;;5049149;28;20116;-56
2022/12/03 05:30:57;;;;;;;8.43;4.95;;;17.90;47.50;;;;;;5049238;28;20041;-56
2022/12/03 05:33:24;;;;;;;8.02;4.35;;;17.80;47.40;;;;;;5049113;28;20433;-60
2022/12/03 05:35:51;;;;;;;4.55;3.92;;;17.90;47.40;;;;;;5049202;28;20072;-58
2022/12/03 05:38:18;;;;;;;5.80;4.97;;;17.90;47.50;;;;;;5049051;28;20509;-57
2022/12/03 05:40:45;;;;;;;5.03;4.53;;;17.90;47.50;;;;;;5048734;28;20622;-56
2022/12/03 05:43:11;;;;;;;7.68;5.53;;;17.90;47.50;;;;;;5049224;28;20122;-56
2022/12/03 05:45:41;;;;;;;6.25;4.53;;;17.90;47.50;;;;;;5049022;28;20037;-56
2022/12/03 05:48:11;;;;;;;6.97;4.63;;;17.80;47.50;;;;;;5049012;28;20091;-57
2022/12/03 05:50:42;;;;;;;4.45;4.03;;;17.90;47.50;;;;;;5048716;28;20137;-57
2022/12/03 05:53:16;;;;;;;6.22;4.60;;;17.80;47.50;;;;;;5048603;28;20041;-58
2022/12/03 05:55:43;;;;;;;9.02;4.78;;;17.90;47.50;;;;;;5048866;28;20576;-57
2022/12/03 05:58:10;;;;;;;3.72;2.95;;;17.80;47.50;;;;;;5048978;28;20570;-56
2022/12/03 06:00:38;;;;;;;4.80;3.00;;;17.80;48.10;;;;;;5047891;28;20045;-56
2022/12/03 06:03:06;;;;;;;6.45;4.43;;;17.80;47.50;;;;;;5048672;28;20361;-57
2022/12/03 06:05:34;;;;;;;4.82;3.63;;;17.80;47.50;;;;;;5048492;28;20045;-56
2022/12/03 06:08:02;;;;;;;4.97;3.55;;;17.80;47.50;;;;;;5048277;28;20128;-58
2022/12/03 06:10:29;;;;;;;4.35;3.63;;;17.80;47.50;;;;;;5048492;28;20068;-58
2022/12/03 06:12:56;;;;;;;5.50;3.08;;;17.80;47.50;;;;;;5048218;28;20043;-57
2022/12/03 06:15:23;;;;;;;4.15;3.67;;;17.80;47.40;;;;;;5048204;28;20069;-58
2022/12/03 06:17:51;;;;;;;5.03;3.80;;;17.80;47.50;;;;;;5048205;28;20533;-56
2022/12/03 06:20:20;;;;;;;4.55;4.15;;;17.80;47.40;;;;;;5048265;28;20765;-57
2022/12/03 06:22:49;;;;;;;3.72;3.08;;;17.70;47.30;;;;;;5048073;28;20053;-58
2022/12/03 06:25:16;;;;;;;5.53;3.60;;;17.80;47.40;;;;;;5048097;28;20072;-56
2022/12/03 06:27:44;;;;;;;4.55;3.05;;;17.70;47.30;;;;;;5048202;28;20064;-58
2022/12/03 06:30:13;;;;;;;4.13;3.75;;;17.70;47.30;;;;;;5047705;28;20133;-57
2022/12/03 06:32:41;;;;;;;7.72;3.67;;;17.70;47.30;;;;;;5047899;28;20079;-57
2022/12/03 06:35:09;;;;;;;5.28;3.47;;;17.70;47.30;;;;;;5047604;28;20049;-55
2022/12/03 06:37:36;;;;;;;4.90;3.65;;;17.70;47.30;;;;;;5048143;28;20088;-57
2022/12/03 06:40:05;;;;;;;4.20;3.20;;;17.70;47.40;;;;;;5047830;28;20142;-56
2022/12/03 06:42:32;;;;;;;4.95;3.38;;;17.70;47.50;;;;;;5046602;28;20052;-57
2022/12/03 06:44:59;;;;;;;2.85;2.60;;;17.70;47.40;;;;;;5048302;28;20048;-56
2022/12/03 06:47:26;;;;;;;4.82;3.22;;;17.70;47.40;;;;;;5047800;28;20055;-56
2022/12/03 06:49:53;;;;;;;6.05;3.83;;;17.70;47.30;;;;;;5047221;28;20130;-57
2022/12/03 06:52:20;;;;;;;4.30;3.80;;;17.70;47.30;;;;;;5047801;28;20045;-56
2022/12/03 06:54:47;;;;;;;3.15;2.50;;;17.70;47.30;;;;;;5045734;28;20212;-56
2022/12/03 06:57:16;;;;;;;7.30;3.28;;;17.70;47.20;;;;;;5046313;28;20599;-56
2022/12/03 06:59:43;;;;;;;6.00;3.92;;;17.70;47.20;;;;;;5047652;28;20142;-56
2022/12/03 07:02:11;;;;;;;3.80;2.55;;;17.70;47.20;;;;;;5047453;28;20033;-58
2022/12/03 07:04:38;;;;;;;4.63;3.38;;;17.70;47.20;;;;;;5047170;28;20045;-56
2022/12/03 07:07:05;;;;;;;2.88;2.47;;;17.70;47.30;;;;;;5047304;28;20520;-59
2022/12/03 07:09:32;;;;;;;3.38;2.70;;;17.70;47.30;;;;;;5047356;28;20049;-53
2022/12/03 07:11:59;;;;;;;5.57;2.80;;;17.70;47.20;;;;;;5046489;28;20041;-56
2022/12/03 07:14:27;;;;;;;5.13;3.33;;;17.70;47.30;;;;;;5047826;28;20033;-54
2022/12/03 07:16:54;;;;;;;4.22;2.95;;;17.70;47.40;;;;;;5047098;28;20037;-57
2022/12/03 07:19:21;;;;;;;3.53;3.22;;;17.70;47.40;;;;;;5046972;28;20049;-56
2022/12/03 07:21:48;;;;;;;3.60;3.05;;;17.70;47.40;;;;;;5047750;28;20506;-58
2022/12/03 07:24:16;;;;;;;4.40;2.60;;;17.70;47.90;;;;;;5046342;28;20047;-58
2022/12/03 07:26:43;;;;;;;4.05;2.50;;;17.60;47.20;;;;;;5047344;28;20049;-58
2022/12/03 07:29:10;;;;;;;2.95;2.47;;;17.60;47.30;;;;;;5047210;28;20048;-57
2022/12/03 07:31:38;;;;;;;3.40;3.10;;;17.60;47.40;;;;;;5045720;28;20033;-59
2022/12/03 07:34:06;;;;;;;3.17;2.58;;;17.70;47.50;;;;;;5045015;28;20053;-57
2022/12/03 07:36:34;;;;;;;5.15;2.90;;;17.60;47.50;;;;;;5046913;28;20492;-59
2022/12/03 07:39:01;;;;;;;2.55;2.25;;;17.60;47.60;;;;;;5047110;28;20110;-58
2022/12/03 07:41:28;;;;;;;2.97;2.53;;;17.60;47.60;;;;;;5046776;28;20048;-59
2022/12/03 07:43:56;;;;;;;2.50;2.30;;;17.60;47.60;;;;;;5046522;28;20055;-59
2022/12/03 07:46:23;;;;;;;3.33;2.40;;;17.60;47.60;;;;;;5046870;28;20037;-58
2022/12/03 07:48:51;;;;;;;2.92;2.63;;;17.60;47.60;;;;;;5046576;28;20081;-57
2022/12/03 07:51:18;;;;;;;3.15;2.53;;;17.60;47.50;;;;;;5045408;28;20051;-59
2022/12/03 07:53:45;;;;;;;3.20;2.50;;;17.60;47.50;;;;;;5046712;28;20059;-59
2022/12/03 07:56:13;;;;;;;2.70;2.50;;;17.60;47.50;;;;;;5046944;28;20068;-59
2022/12/03 07:58:40;;;;;;;4.07;3.08;;;17.60;47.50;;;;;;5046936;28;20122;-59
2022/12/03 08:01:07;;;;;;;2.65;2.40;;;17.60;47.50;;;;;;5046720;28;20044;-57
2022/12/03 08:03:34;;;;;;;3.42;2.47;;;17.60;47.50;;;;;;5046461;28;20048;-57
2022/12/03 08:06:02;;;;;;;2.58;2.30;;;17.60;47.50;;;;;;5046000;28;20052;-57
2022/12/03 08:08:29;;;;;;;4.28;3.13;;;17.60;47.50;;;;;;5046908;28;20136;-58
2022/12/03 08:10:56;;;;;;;2.35;2.15;;;17.60;47.50;;;;;;5046856;28;20090;-54
2022/12/03 08:13:23;;;;;;;2.00;1.50;;;17.60;47.50;;;;;;5046685;28;20072;-55
2022/12/03 08:15:52;;;;;;;2.50;2.05;;;17.60;47.60;;;;;;5046726;28;20033;-57
2022/12/03 08:18:20;;;;;;;2.33;2.08;;;17.60;47.60;;;;;;5046156;28;20060;-57
2022/12/03 08:20:49;;;;;;;2.05;1.77;;;17.60;47.50;;;;;;5046427;28;20448;-57
2022/12/03 08:23:20;;;;;;;2.83;2.60;;;17.60;47.50;;;;;;5047682;28;20052;-59
2022/12/03 08:25:48;;;;;;;6.65;3.38;;;17.60;47.40;;;;;;5050482;28;20533;-58
2022/12/03 08:28:18;;;;;;;10.15;6.45;;;17.60;47.40;;;;;;5050400;28;20099;-58
2022/12/03 08:30:57;;;;;;;15.30;8.43;;;17.60;47.30;;;;;;5037211;28;20041;-58
2022/12/03 08:33:27;;;;;;;22.42;11.77;;;17.60;47.20;;;;;;5050254;28;20544;-58
2022/12/03 08:35:55;;;;;;;31.95;17.02;;;17.60;47.30;;;;;;5050202;28;20790;-58
2022/12/03 08:38:25;;;;;;;39.22;19.67;;;17.60;47.30;;;;;;5050614;28;20037;-57
2022/12/03 08:40:54;;;;;;;41.40;21.40;;;17.60;47.30;;;;;;5050225;28;20067;-57
2022/12/03 08:43:24;;;;;;;49.45;26.55;;;17.60;47.20;;;;;;5050352;28;20099;-57
2022/12/03 08:45:52;;;;;;;53.53;27.73;;;17.60;47.20;;;;;;5050084;28;20045;-58
2022/12/03 08:48:32;;;;;;;65.20;33.83;;;17.60;47.20;;;;;;5050456;28;20041;-58
2022/12/03 08:51:01;;;;;;;59.50;30.25;;;17.60;47.00;;;;;;5049896;28;20171;-58
2022/12/03 08:53:33;;;;;;;52.58;27.50;;;17.60;47.00;;;;;;5050239;28;20089;-55
2022/12/03 08:56:01;;;;;;;62.53;31.40;;;17.60;47.00;;;;;;5050258;28;20452;-58
2022/12/03 08:58:36;;;;;;;64.82;32.03;;;17.60;47.00;;;;;;5046927;28;20033;-56
2022/12/03 09:01:27;;;;;;;61.42;32.08;;;17.60;47.00;;;;;;5049698;28;20052;-58
2022/12/03 09:03:55;;;;;;;62.72;32.03;;;17.60;47.00;;;;;;5049913;28;20132;-56
2022/12/03 09:06:22;;;;;;;58.70;30.65;;;17.60;47.00;;;;;;5049714;28;20142;-58
2022/12/03 09:08:51;;;;;;;61.80;32.00;;;17.60;47.00;;;;;;5050020;28;20599;-58
2022/12/03 09:11:18;;;;;;;63.63;30.13;;;17.60;47.00;;;;;;5065059;28;20124;-58
2022/12/03 09:13:45;;;;;;;55.65;29.30;;;17.60;47.00;;;;;;5049819;28;20045;-58
2022/12/03 09:16:12;;;;;;;55.72;29.35;;;17.60;47.00;;;;;;5049480;28;20041;-57
2022/12/03 09:18:39;;;;;;;47.03;26.63;;;17.60;47.00;;;;;;5049499;28;20889;-57
2022/12/03 09:21:06;;;;;;;51.03;27.00;;;17.60;47.00;;;;;;5049229;28;20132;-59
2022/12/03 09:23:33;;;;;;;53.95;26.90;;;17.60;46.90;;;;;;5049803;28;20136;-58
2022/12/03 09:26:02;;;;;;;43.30;23.73;;;17.60;46.90;;;;;;5049809;28;20048;-58
2022/12/03 09:28:29;;;;;;;48.13;23.83;;;17.60;46.90;;;;;;5049657;28;20565;-58
2022/12/03 09:30:56;;;;;;;41.58;22.55;;;17.50;47.40;;;;;;5049149;28;20118;-57
2022/12/03 09:33:23;;;;;;;40.80;23.17;;;17.50;46.80;;;;;;5049478;28;20518;-63
2022/12/03 09:35:50;;;;;;;41.88;22.48;;;17.50;46.80;;;;;;5048266;28;20106;-58
2022/12/03 09:38:17;;;;;;;39.83;20.92;;;17.50;46.70;;;;;;5050029;28;20132;-58
2022/12/03 09:40:44;;;;;;;31.88;18.15;;;17.50;46.80;;;;;;5049650;28;20064;-58
2022/12/03 09:43:13;;;;;;;33.33;16.98;;;17.50;47.30;;;;;;5049423;28;20064;-58
2022/12/03 09:45:40;;;;;;;33.53;17.58;;;17.50;46.70;;;;;;5048916;28;20072;-58
2022/12/03 09:48:07;;;;;;;32.75;17.67;;;17.50;46.60;;;;;;5049580;28;20051;-60
2022/12/03 09:50:36;;;;;;;28.70;16.13;;;17.50;46.60;;;;;;5049141;28;20134;-60
2022/12/03 09:53:03;;;;;;;30.23;14.57;;;17.50;46.60;;;;;;5049476;28;20051;-56
2022/12/03 09:55:31;;;;;;;30.08;15.02;;;17.50;46.50;;;;;;5047954;28;20060;-57
2022/12/03 09:57:59;;;;;;;23.83;12.93;;;17.50;46.60;;;;;;5048910;28;20051;-59
2022/12/03 10:00:30;;;;;;;27.27;13.20;;;17.50;46.60;;;;;;5049405;28;20051;-57
2022/12/03 10:03:01;;;;;;;20.50;11.52;;;17.50;46.90;;;;;;5049205;28;20091;-55
2022/12/03 10:05:29;;;;;;;21.80;11.88;;;17.50;46.70;;;;;;5047727;28;20451;-56
2022/12/03 10:08:01;;;;;;;20.38;11.73;;;17.50;46.70;;;;;;5048547;28;20051;-58
2022/12/03 10:10:28;;;;;;;17.45;9.90;;;17.50;46.70;;;;;;5048728;28;20077;-57
2022/12/03 10:12:55;;;;;;;18.08;10.15;;;17.50;46.60;;;;;;5048599;28;20132;-59
2022/12/03 10:15:23;;;;;;;19.23;9.65;;;17.50;46.60;;;;;;5048862;28;20041;-57
2022/12/03 10:17:54;;;;;;;17.33;8.80;;;17.50;46.60;;;;;;5048655;28;20041;-56
2022/12/03 10:20:23;;;;;;;12.70;7.47;;;17.50;46.50;;;;;;5048630;28;20045;-58
2022/12/03 10:22:50;;;;;;;15.20;8.38;;;17.50;46.50;;;;;;5048685;28;20041;-58
2022/12/03 10:25:19;;;;;;;13.07;6.95;;;17.50;46.50;;;;;;5049018;28;20076;-57
2022/12/03 10:27:56;;;;;;;13.48;7.03;;;17.50;46.40;;;;;;5048292;28;20045;-56
2022/12/03 10:30:26;;;;;;;13.50;8.73;;;17.50;46.30;;;;;;5048189;28;20590;-58
2022/12/03 10:32:56;;;;;;;10.95;6.72;;;17.50;46.50;;;;;;5048056;28;20597;-56
2022/12/03 10:35:25;;;;;;;13.13;6.78;;;17.50;46.50;;;;;;5035081;28;20056;-59
2022/12/03 10:37:58;;;;;;;10.68;6.55;;;17.50;46.80;;;;;;5045216;28;20045;-61
2022/12/03 10:40:27;;;;;;;10.52;4.95;;;17.60;47.40;;;;;;5046643;28;20048;-60
2022/12/03 10:43:13;;;;;;;6.60;4.22;;;17.70;47.90;;;;;;5052907;28;20452;-60
2022/12/03 10:45:40;;;;;;;7.40;4.00;;;17.90;48.00;;;;;;5052818;28;20049;-64
2022/12/03 10:48:14;;;;;;;5.88;3.28;;;18.10;48.00;;;;;;5052337;28;20048;-62
2022/12/03 10:50:52;;;;;;;6.13;3.47;;;18.40;47.90;;;;;;5049701;28;20047;-61
2022/12/03 10:53:21;;;;;;;6.72;3.30;;;18.70;47.60;;;;;;5036419;28;20123;-62
2022/12/03 10:55:51;;;;;;;7.60;3.80;;;18.90;47.30;;;;;;5044271;28;20106;-62
2022/12/03 10:58:23;;;;;;;5.50;3.25;;;19.20;46.90;;;;;;5051931;28;20107;-62
2022/12/03 11:00:52;;;;;;;3.47;2.83;;;19.40;46.50;;;;;;5052174;28;20051;-63
2022/12/03 11:03:22;;;;;;;6.85;2.97;;;19.70;46.20;;;;;;5046796;28;20041;-61
2022/12/03 11:05:51;;;;;;;7.15;2.53;;;19.90;45.80;;;;;;5051550;28;20456;-63
2022/12/03 11:08:20;;;;;;;3.83;2.08;;;20.10;45.50;;;;;;5045410;28;20053;-62
2022/12/03 11:10:57;;;;;;;2.25;2.03;;;20.30;45.20;;;;;;5047395;28;20048;-61
2022/12/03 11:13:44;;;;;;;2.22;1.77;;;20.40;44.80;;;;;;5040919;28;20045;-60
2022/12/03 11:16:11;;;;;;;5.93;1.38;;;20.60;44.70;;;;;;5050979;28;20055;-61
2022/12/03 11:19:02;;;;;;;1.75;1.65;;;20.70;44.40;;;;;;5051184;28;20048;-62
2022/12/03 11:21:29;;;;;;;2.08;1.52;;;20.90;44.00;;;;;;5050661;28;20037;-62
2022/12/03 11:24:27;;;;;;;2.88;2.15;;;21.10;43.80;;;;;;5051355;28;20505;-61
2022/12/03 11:27:19;;;;;;;1.63;1.35;;;21.20;43.50;;;;;;5047189;28;20041;-63
2022/12/03 11:30:09;;;;;;;2.58;1.25;;;21.40;43.20;;;;;;5047003;28;20448;-60
2022/12/03 11:33:20;;;;;;;1.85;1.27;;;21.60;43.10;;;;;;5051314;28;20059;-59
2022/12/03 11:36:14;;;;;;;5.68;1.30;;;21.80;42.70;;;;;;5051321;28;20041;-61
2022/12/03 11:38:51;;;;;;;1.08;1.05;;;21.90;42.30;;;;;;5051140;28;20041;-54
2022/12/03 11:41:21;;;;;;;1.75;1.17;;;22.10;42.20;;;;;;5050484;28;20571;-58
2022/12/03 11:44:03;;;;;;;1.67;1.58;;;22.20;42.00;;;;;;5041276;28;20049;-60
2022/12/03 11:46:40;;;;;;;2.45;1.50;;;22.40;41.10;;;;;;5046684;28;20561;-63
2022/12/03 11:49:25;;;;;;;1.48;1.38;;;22.50;40.80;;;;;;5030926;28;20098;-62
2022/12/03 11:51:54;;;;;;;2.33;0.93;;;22.60;40.80;;;;;;5046815;28;20120;-61
2022/12/03 11:54:23;;;;;;;2.42;0.60;;;22.70;40.90;;;;;;5047338;28;20067;-59
2022/12/03 11:56:52;;;;;;;0.80;0.77;;;22.80;40.20;;;;;;5047641;28;20502;-62
2022/12/03 11:59:20;;;;;;;3.95;1.02;;;22.70;39.60;;;;;;5046982;28;20409;-61
2022/12/03 12:01:47;;;;;;;1.40;1.23;;;22.70;39.40;;;;;;5047716;28;20045;-63
2022/12/03 12:04:32;;;;;;;1.98;1.42;;;22.70;39.20;;;;;;5047492;28;20471;-65
2022/12/03 12:07:01;;;;;;;1.30;1.20;;;22.70;38.90;;;;;;5047254;28;20520;-64
2022/12/03 12:09:50;;;;;;;0.80;0.73;;;22.60;38.90;;;;;;5044838;28;20033;-64
2022/12/03 12:12:19;;;;;;;1.05;1.00;;;22.60;39.00;;;;;;5046909;28;20048;-55
2022/12/03 12:14:46;;;;;;;1.05;1.05;;;22.40;38.80;;;;;;5046896;28;20374;-56
2022/12/03 12:17:29;;;;;;;1.27;1.00;;;22.40;39.50;;;;;;5047360;28;20119;-52
2022/12/03 12:20:12;;;;;;;1.13;1.02;;;22.40;38.80;;;;;;5046569;28;20119;-53
2022/12/03 12:22:41;;;;;;;1.38;1.27;;;22.30;38.90;;;;;;5046490;28;20080;-53
2022/12/03 12:25:37;;;;;;;1.25;1.17;;;22.30;38.90;;;;;;5030366;28;20037;-56
2022/12/03 12:28:04;;;;;;;1.27;1.17;;;22.20;38.70;;;;;;5036418;28;20045;-54
2022/12/03 12:30:31;;;;;;;1.00;0.95;;;22.10;38.80;;;;;;5046611;28;20045;-59
2022/12/03 12:33:10;;;;;;;0.98;0.98;;;22.10;38.90;;;;;;5045986;28;20057;-54
2022/12/03 12:35:38;;;;;;;1.25;0.50;;;22.00;38.90;;;;;;5046626;28;20037;-61
2022/12/03 12:38:14;;;;;;;1.08;1.08;;;22.00;39.10;;;;;;5045796;28;20168;-57
2022/12/03 12:40:44;;;;;;;1.02;0.98;;;22.00;38.90;;;;;;5046213;28;20045;-56
2022/12/03 12:43:22;;;;;;;1.80;1.67;;;21.80;39.00;;;;;;5047006;28;20498;-68
2022/12/03 12:45:50;;;;;;;8.13;1.48;;;21.80;38.90;;;;;;5045085;28;20064;-64
2022/12/03 12:48:23;;;;;;;4.00;1.55;;;21.70;38.80;;;;;;5047815;28;20045;-54
2022/12/03 12:50:58;;;;;;;1.48;0.93;;;21.70;38.90;;;;;;5044953;28;20131;-52
2022/12/03 12:53:28;;;;;;;0.98;0.80;;;21.70;39.00;;;;;;5046764;28;20120;-63
2022/12/03 12:55:58;;;;;;;2.75;1.42;;;21.60;39.30;;;;;;5046925;28;20053;-63
2022/12/03 12:58:27;;;;;;;3.05;1.15;;;21.50;39.70;;;;;;5042685;28;20123;-64
2022/12/03 13:00:56;;;;;;;6.03;1.25;;;21.40;39.70;;;;;;5051155;28;20300;-64
2022/12/03 13:03:26;;;;;;;1.10;1.00;;;21.40;39.80;;;;;;5046417;28;20051;-64
2022/12/03 13:05:56;;;;;;;3.65;1.83;;;21.30;39.90;;;;;;5049687;28;20065;-65
2022/12/03 13:08:28;;;;;;;3.42;2.05;;;21.20;40.10;;;;;;5046256;28;20041;-63
2022/12/03 13:10:56;;;;;;;2.67;2.33;;;21.10;40.30;;;;;;5047040;28;20045;-63
2022/12/03 13:13:26;;;;;;;6.38;3.15;;;21.00;40.50;;;;;;5040665;28;20329;-64